sensor_id;sensor_type;location;lat;lon;timestamp;temperature;humidity
16313;DHT22;8265;52.622;13.296;2023-03-01T00:01:36;-5.10;85.50
16313;DHT22;8265;52.622;13.296;2023-03-01T00:06:57;-5.10;85.70
16313;DHT22;8265;52.622;13.296;2023-03-01T00:12:18;-5.20;85.50
16313;DHT22;8265;52.622;13.296;2023-03-01T00:17:39;-5.20;85.70
16313;DHT22;8265;52.622;13.296;2023-03-01T00:23:00;-5.40;86.30
16313;DHT22;8265;52.622;13.296;2023-03-01T00:28:21;-5.40;86.10
16313;DHT22;8265;52.622;13.296;2023-03-01T00:33:42;-5.40;85.90
16313;DHT22;8265;52.622;13.296;2023-03-01T00:39:04;-5.40;86.20
16313;DHT22;8265;52.622;13.296;2023-03-01T00:44:24;-5.40;87.60
16313;DHT22;8265;52.622;13.296;2023-03-01T00:49:45;-5.30;88.00
16313;DHT22;8265;52.622;13.296;2023-03-01T00:55:06;-4.90;87.50
16313;DHT22;8265;52.622;13.296;2023-03-01T01:00:26;-5.20;86.00
16313;DHT22;8265;52.622;13.296;2023-03-01T01:05:47;-5.40;86.60
16313;DHT22;8265;52.622;13.296;2023-03-01T01:11:09;-5.60;86.80
16313;DHT22;8265;52.622;13.296;2023-03-01T01:16:30;-5.60;86.80
16313;DHT22;8265;52.622;13.296;2023-03-01T01:21:51;-5.70;87.00
16313;DHT22;8265;52.622;13.296;2023-03-01T01:27:11;-5.60;87.70
16313;DHT22;8265;52.622;13.296;2023-03-01T01:32:33;-5.80;88.00
16313;DHT22;8265;52.622;13.296;2023-03-01T01:37:53;-5.80;88.50
16313;DHT22;8265;52.622;13.296;2023-03-01T01:43:19;-5.80;88.00
16313;DHT22;8265;52.622;13.296;2023-03-01T01:48:42;-5.80;88.60
16313;DHT22;8265;52.622;13.296;2023-03-01T01:53:58;-5.80;87.90
16313;DHT22;8265;52.622;13.296;2023-03-01T01:59:17;-5.80;88.20
16313;DHT22;8265;52.622;13.296;2023-03-01T02:04:38;-6.00;87.50
16313;DHT22;8265;52.622;13.296;2023-03-01T02:09:59;-5.70;89.10
16313;DHT22;8265;52.622;13.296;2023-03-01T02:15:21;-5.80;88.40
16313;DHT22;8265;52.622;13.296;2023-03-01T02:26:07;-6.00;88.50
16313;DHT22;8265;52.622;13.296;2023-03-01T02:31:23;-6.00;89.10
16313;DHT22;8265;52.622;13.296;2023-03-01T02:36:48;-5.80;89.60
16313;DHT22;8265;52.622;13.296;2023-03-01T02:42:05;-5.90;89.20
16313;DHT22;8265;52.622;13.296;2023-03-01T02:47:26;-6.10;89.00
16313;DHT22;8265;52.622;13.296;2023-03-01T02:52:52;-6.20;88.90
16313;DHT22;8265;52.622;13.296;2023-03-01T02:58:08;-6.10;89.20
16313;DHT22;8265;52.622;13.296;2023-03-01T03:03:29;-5.90;89.90
16313;DHT22;8265;52.622;13.296;2023-03-01T03:08:50;-5.80;89.20
16313;DHT22;8265;52.622;13.296;2023-03-01T03:14:12;-6.00;89.90
16313;DHT22;8265;52.622;13.296;2023-03-01T03:19:33;-5.60;90.20
16313;DHT22;8265;52.622;13.296;2023-03-01T03:24:53;-6.00;89.00
16313;DHT22;8265;52.622;13.296;2023-03-01T03:30:18;-6.10;89.80
16313;DHT22;8265;52.622;13.296;2023-03-01T03:35:40;-6.20;89.70
16313;DHT22;8265;52.622;13.296;2023-03-01T03:41:01;-6.20;89.60
16313;DHT22;8265;52.622;13.296;2023-03-01T03:46:17;-6.30;89.20
16313;DHT22;8265;52.622;13.296;2023-03-01T03:51:38;-6.50;89.70
16313;DHT22;8265;52.622;13.296;2023-03-01T03:56:59;-6.50;89.90
16313;DHT22;8265;52.622;13.296;2023-03-01T04:02:20;-6.50;89.70
16313;DHT22;8265;52.622;13.296;2023-03-01T04:07:42;-6.60;90.00
16313;DHT22;8265;52.622;13.296;2023-03-01T04:13:03;-6.60;90.00
16313;DHT22;8265;52.622;13.296;2023-03-01T04:18:23;-6.60;89.60
16313;DHT22;8265;52.622;13.296;2023-03-01T04:23:44;-6.60;90.00
16313;DHT22;8265;52.622;13.296;2023-03-01T04:29:05;-6.70;89.80
16313;DHT22;8265;52.622;13.296;2023-03-01T04:34:26;-6.70;90.10
16313;DHT22;8265;52.622;13.296;2023-03-01T04:39:47;-6.70;89.70
16313;DHT22;8265;52.622;13.296;2023-03-01T04:45:09;-6.80;89.90
16313;DHT22;8265;52.622;13.296;2023-03-01T04:50:29;-6.80;90.40
16313;DHT22;8265;52.622;13.296;2023-03-01T04:55:50;-6.80;90.70
16313;DHT22;8265;52.622;13.296;2023-03-01T05:01:12;-6.80;90.30
16313;DHT22;8265;52.622;13.296;2023-03-01T05:06:32;-6.80;90.20
16313;DHT22;8265;52.622;13.296;2023-03-01T05:11:53;-6.80;90.20
16313;DHT22;8265;52.622;13.296;2023-03-01T05:17:14;-6.80;90.40
16313;DHT22;8265;52.622;13.296;2023-03-01T05:22:36;-6.80;90.00
16313;DHT22;8265;52.622;13.296;2023-03-01T05:27:56;-6.90;90.10
16313;DHT22;8265;52.622;13.296;2023-03-01T05:33:17;-6.90;90.20
16313;DHT22;8265;52.622;13.296;2023-03-01T05:38:38;-7.00;89.50
16313;DHT22;8265;52.622;13.296;2023-03-01T05:43:59;-7.10;90.00
16313;DHT22;8265;52.622;13.296;2023-03-01T05:49:20;-7.10;90.30
16313;DHT22;8265;52.622;13.296;2023-03-01T05:54:41;-7.10;90.10
16313;DHT22;8265;52.622;13.296;2023-03-01T06:00:02;-7.10;90.10
16313;DHT22;8265;52.622;13.296;2023-03-01T06:05:23;-7.10;90.10
16313;DHT22;8265;52.622;13.296;2023-03-01T06:10:44;-7.10;90.50
16313;DHT22;8265;52.622;13.296;2023-03-01T06:16:05;-7.00;90.70
16313;DHT22;8265;52.622;13.296;2023-03-01T06:21:26;-7.00;90.90
16313;DHT22;8265;52.622;13.296;2023-03-01T06:26:47;-6.80;90.80
16313;DHT22;8265;52.622;13.296;2023-03-01T06:32:08;-6.70;90.20
16313;DHT22;8265;52.622;13.296;2023-03-01T06:37:29;-6.70;89.90
16313;DHT22;8265;52.622;13.296;2023-03-01T06:42:50;-6.30;90.40
16313;DHT22;8265;52.622;13.296;2023-03-01T06:48:11;-6.30;89.80
16313;DHT22;8265;52.622;13.296;2023-03-01T06:53:32;-6.10;89.70
16313;DHT22;8265;52.622;13.296;2023-03-01T06:58:53;-6.00;89.40
16313;DHT22;8265;52.622;13.296;2023-03-01T07:04:14;-5.70;89.00
16313;DHT22;8265;52.622;13.296;2023-03-01T07:09:35;-5.50;89.00
16313;DHT22;8265;52.622;13.296;2023-03-01T07:14:56;-5.30;87.50
16313;DHT22;8265;52.622;13.296;2023-03-01T07:20:18;-4.10;87.10
16313;DHT22;8265;52.622;13.296;2023-03-01T07:25:38;-2.50;82.10
16313;DHT22;8265;52.622;13.296;2023-03-01T07:31:02;-1.60;78.60
16313;DHT22;8265;52.622;13.296;2023-03-01T07:36:20;-0.70;74.10
16313;DHT22;8265;52.622;13.296;2023-03-01T07:41:41;-1.50;76.10
16313;DHT22;8265;52.622;13.296;2023-03-01T07:47:03;-2.10;78.70
16313;DHT22;8265;52.622;13.296;2023-03-01T07:52:23;-2.10;79.40
16313;DHT22;8265;52.622;13.296;2023-03-01T07:57:44;-1.00;81.40
16313;DHT22;8265;52.622;13.296;2023-03-01T08:03:05;0.00;75.10
16313;DHT22;8265;52.622;13.296;2023-03-01T08:08:26;0.60;71.80
16313;DHT22;8265;52.622;13.296;2023-03-01T08:13:47;1.10;70.40
16313;DHT22;8265;52.622;13.296;2023-03-01T08:19:09;1.50;68.90
16313;DHT22;8265;52.622;13.296;2023-03-01T08:24:29;1.00;70.20
16313;DHT22;8265;52.622;13.296;2023-03-01T08:29:50;1.20;68.90
16313;DHT22;8265;52.622;13.296;2023-03-01T08:35:11;1.60;68.50
16313;DHT22;8265;52.622;13.296;2023-03-01T08:40:32;2.00;66.90
16313;DHT22;8265;52.622;13.296;2023-03-01T08:45:53;2.30;64.60
16313;DHT22;8265;52.622;13.296;2023-03-01T08:51:18;2.00;63.90
16313;DHT22;8265;52.622;13.296;2023-03-01T08:56:35;2.00;62.50
16313;DHT22;8265;52.622;13.296;2023-03-01T09:01:56;2.10;62.90
16313;DHT22;8265;52.622;13.296;2023-03-01T09:07:17;2.40;62.30
16313;DHT22;8265;52.622;13.296;2023-03-01T09:12:38;2.50;61.20
16313;DHT22;8265;52.622;13.296;2023-03-01T09:17:59;2.50;60.50
16313;DHT22;8265;52.622;13.296;2023-03-01T09:23:20;2.80;60.30
16313;DHT22;8265;52.622;13.296;2023-03-01T09:28:41;2.80;60.30
16313;DHT22;8265;52.622;13.296;2023-03-01T09:34:02;2.90;61.30
16313;DHT22;8265;52.622;13.296;2023-03-01T09:39:23;3.10;61.00
16313;DHT22;8265;52.622;13.296;2023-03-01T09:44:55;3.30;59.00
16313;DHT22;8265;52.622;13.296;2023-03-01T09:50:16;3.30;58.30
16313;DHT22;8265;52.622;13.296;2023-03-01T09:55:39;3.30;58.90
16313;DHT22;8265;52.622;13.296;2023-03-01T10:00:47;3.50;56.00
16313;DHT22;8265;52.622;13.296;2023-03-01T10:06:21;3.60;55.70
16313;DHT22;8265;52.622;13.296;2023-03-01T10:11:39;3.80;55.70
16313;DHT22;8265;52.622;13.296;2023-03-01T10:17:39;4.00;55.00
16313;DHT22;8265;52.622;13.296;2023-03-01T10:22:21;3.90;54.60
16313;DHT22;8265;52.622;13.296;2023-03-01T10:27:51;3.90;55.30
16313;DHT22;8265;52.622;13.296;2023-03-01T10:32:53;4.00;54.50
16313;DHT22;8265;52.622;13.296;2023-03-01T10:38:15;4.20;53.60
16313;DHT22;8265;52.622;13.296;2023-03-01T10:43:48;4.30;53.50
16313;DHT22;8265;52.622;13.296;2023-03-01T10:54:30;4.10;52.50
16313;DHT22;8265;52.622;13.296;2023-03-01T10:59:38;4.30;52.20
16313;DHT22;8265;52.622;13.296;2023-03-01T11:10:26;4.60;51.20
16313;DHT22;8265;52.622;13.296;2023-03-01T11:15:41;4.70;50.90
16313;DHT22;8265;52.622;13.296;2023-03-01T11:21:02;4.70;49.60
16313;DHT22;8265;52.622;13.296;2023-03-01T11:26:22;5.00;48.60
16313;DHT22;8265;52.622;13.296;2023-03-01T11:31:43;5.00;48.50
16313;DHT22;8265;52.622;13.296;2023-03-01T11:37:09;5.10;47.00
16313;DHT22;8265;52.622;13.296;2023-03-01T11:42:47;5.00;46.90
16313;DHT22;8265;52.622;13.296;2023-03-01T11:48:07;5.40;47.30
16313;DHT22;8265;52.622;13.296;2023-03-01T11:58:38;5.60;47.80
16313;DHT22;8265;52.622;13.296;2023-03-01T12:04:06;5.70;45.30
16313;DHT22;8265;52.622;13.296;2023-03-01T12:14:52;5.60;44.90
16313;DHT22;8265;52.622;13.296;2023-03-01T12:25:19;5.90;44.10
16313;DHT22;8265;52.622;13.296;2023-03-01T12:30:39;5.90;44.10
16313;DHT22;8265;52.622;13.296;2023-03-01T12:51:59;6.20;42.50
16313;DHT22;8265;52.622;13.296;2023-03-01T12:57:34;6.20;43.80
16313;DHT22;8265;52.622;13.296;2023-03-01T13:08:11;6.30;43.50
16313;DHT22;8265;52.622;13.296;2023-03-01T13:13:26;6.40;44.20
16313;DHT22;8265;52.622;13.296;2023-03-01T13:18:43;6.40;43.90
16313;DHT22;8265;52.622;13.296;2023-03-01T13:24:22;6.50;43.70
16313;DHT22;8265;52.622;13.296;2023-03-01T13:29:25;6.60;44.10
16313;DHT22;8265;52.622;13.296;2023-03-01T13:34:47;6.70;44.80
16313;DHT22;8265;52.622;13.296;2023-03-01T13:45:40;6.80;44.80
16313;DHT22;8265;52.622;13.296;2023-03-01T13:51:03;6.90;45.00
16313;DHT22;8265;52.622;13.296;2023-03-01T13:56:15;7.00;44.10
16313;DHT22;8265;52.622;13.296;2023-03-01T14:01:32;7.00;44.60
16313;DHT22;8265;52.622;13.296;2023-03-01T14:07:08;7.10;44.20
16313;DHT22;8265;52.622;13.296;2023-03-01T14:12:47;7.40;44.10
16313;DHT22;8265;52.622;13.296;2023-03-01T14:17:37;7.50;44.10
16313;DHT22;8265;52.622;13.296;2023-03-01T14:22:56;7.60;44.20
16313;DHT22;8265;52.622;13.296;2023-03-01T14:33:37;7.80;43.20
16313;DHT22;8265;52.622;13.296;2023-03-01T14:38:58;8.00;43.30
16313;DHT22;8265;52.622;13.296;2023-03-01T14:44:21;8.00;43.20
16313;DHT22;8265;52.622;13.296;2023-03-01T14:49:40;7.80;44.50
16313;DHT22;8265;52.622;13.296;2023-03-01T14:55:02;7.80;45.20
16313;DHT22;8265;52.622;13.296;2023-03-01T15:00:24;7.60;46.40
16313;DHT22;8265;52.622;13.296;2023-03-01T15:05:43;7.60;46.40
16313;DHT22;8265;52.622;13.296;2023-03-01T15:16:32;7.40;48.60
16313;DHT22;8265;52.622;13.296;2023-03-01T15:21:47;7.30;49.60
16313;DHT22;8265;52.622;13.296;2023-03-01T15:27:17;7.20;49.60
16313;DHT22;8265;52.622;13.296;2023-03-01T15:32:35;7.10;49.80
16313;DHT22;8265;52.622;13.296;2023-03-01T15:37:49;7.00;50.10
16313;DHT22;8265;52.622;13.296;2023-03-01T15:43:14;6.90;50.40
16313;DHT22;8265;52.622;13.296;2023-03-01T15:48:31;6.70;51.60
16313;DHT22;8265;52.622;13.296;2023-03-01T15:53:52;6.60;52.00
16313;DHT22;8265;52.622;13.296;2023-03-01T15:59:13;6.40;52.60
16313;DHT22;8265;52.622;13.296;2023-03-01T16:04:34;6.30;51.50
16313;DHT22;8265;52.622;13.296;2023-03-01T16:09:55;6.10;52.30
16313;DHT22;8265;52.622;13.296;2023-03-01T16:15:28;5.90;52.90
16313;DHT22;8265;52.622;13.296;2023-03-01T16:20:37;5.70;53.30
16313;DHT22;8265;52.622;13.296;2023-03-01T16:25:59;5.40;54.30
16313;DHT22;8265;52.622;13.296;2023-03-01T16:31:19;5.00;55.90
16313;DHT22;8265;52.622;13.296;2023-03-01T16:36:40;4.70;57.00
16313;DHT22;8265;52.622;13.296;2023-03-01T16:42:01;4.40;58.30
16313;DHT22;8265;52.622;13.296;2023-03-01T16:47:22;4.10;59.00
16313;DHT22;8265;52.622;13.296;2023-03-01T16:52:43;3.80;61.10
16313;DHT22;8265;52.622;13.296;2023-03-01T16:58:04;3.50;62.20
16313;DHT22;8265;52.622;13.296;2023-03-01T17:03:25;3.10;62.70
16313;DHT22;8265;52.622;13.296;2023-03-01T17:08:46;2.90;64.30
16313;DHT22;8265;52.622;13.296;2023-03-01T17:14:07;2.60;64.70
16313;DHT22;8265;52.622;13.296;2023-03-01T17:19:28;2.40;67.10
16313;DHT22;8265;52.622;13.296;2023-03-01T17:24:49;2.80;68.50
16313;DHT22;8265;52.622;13.296;2023-03-01T17:30:10;2.50;66.20
16313;DHT22;8265;52.622;13.296;2023-03-01T17:35:30;1.90;67.60
16313;DHT22;8265;52.622;13.296;2023-03-01T17:40:51;1.50;69.20
16313;DHT22;8265;52.622;13.296;2023-03-01T17:46:12;1.20;70.10
16313;DHT22;8265;52.622;13.296;2023-03-01T17:51:33;1.00;71.20
16313;DHT22;8265;52.622;13.296;2023-03-01T17:56:54;0.80;71.80
16313;DHT22;8265;52.622;13.296;2023-03-01T18:02:15;0.60;72.90
16313;DHT22;8265;52.622;13.296;2023-03-01T18:07:36;0.40;73.60
16313;DHT22;8265;52.622;13.296;2023-03-01T18:12:57;0.30;74.20
16313;DHT22;8265;52.622;13.296;2023-03-01T18:18:18;0.20;75.30
16313;DHT22;8265;52.622;13.296;2023-03-01T18:23:40;0.00;76.20
16313;DHT22;8265;52.622;13.296;2023-03-01T18:29:00;-0.10;76.50
16313;DHT22;8265;52.622;13.296;2023-03-01T18:34:22;-0.10;76.10
16313;DHT22;8265;52.622;13.296;2023-03-01T18:39:42;-0.10;76.60
16313;DHT22;8265;52.622;13.296;2023-03-01T18:45:03;0.00;80.70
16313;DHT22;8265;52.622;13.296;2023-03-01T18:50:24;1.40;75.50
16313;DHT22;8265;52.622;13.296;2023-03-01T18:55:45;0.60;73.10
16313;DHT22;8265;52.622;13.296;2023-03-01T19:01:10;0.00;75.30
16313;DHT22;8265;52.622;13.296;2023-03-01T19:06:29;-0.40;76.50
16313;DHT22;8265;52.622;13.296;2023-03-01T19:11:49;-0.60;77.50
16313;DHT22;8265;52.622;13.296;2023-03-01T19:17:09;0.00;78.60
16313;DHT22;8265;52.622;13.296;2023-03-01T19:22:30;-0.20;77.30
16313;DHT22;8265;52.622;13.296;2023-03-01T19:27:51;-0.40;77.30
16313;DHT22;8265;52.622;13.296;2023-03-01T19:33:12;-0.70;78.70
16313;DHT22;8265;52.622;13.296;2023-03-01T19:38:33;-1.10;80.00
16313;DHT22;8265;52.622;13.296;2023-03-01T19:43:54;-1.10;80.30
16313;DHT22;8265;52.622;13.296;2023-03-01T19:49:15;-1.10;80.30
16313;DHT22;8265;52.622;13.296;2023-03-01T19:54:36;-1.20;81.00
16313;DHT22;8265;52.622;13.296;2023-03-01T19:59:57;-1.20;80.90
16313;DHT22;8265;52.622;13.296;2023-03-01T20:05:18;-1.30;81.70
16313;DHT22;8265;52.622;13.296;2023-03-01T20:10:39;-1.40;82.20
16313;DHT22;8265;52.622;13.296;2023-03-01T20:16:00;-1.10;82.00
16313;DHT22;8265;52.622;13.296;2023-03-01T20:21:21;-1.20;81.80
16313;DHT22;8265;52.622;13.296;2023-03-01T20:26:42;-0.70;84.60
16313;DHT22;8265;52.622;13.296;2023-03-01T20:32:03;-0.20;77.60
16313;DHT22;8265;52.622;13.296;2023-03-01T20:37:24;-1.10;79.40
16313;DHT22;8265;52.622;13.296;2023-03-01T20:42:45;-1.60;81.70
16313;DHT22;8265;52.622;13.296;2023-03-01T20:48:06;-1.70;82.70
16313;DHT22;8265;52.622;13.296;2023-03-01T20:53:27;-1.90;82.90
16313;DHT22;8265;52.622;13.296;2023-03-01T20:58:48;-2.10;83.40
16313;DHT22;8265;52.622;13.296;2023-03-01T21:04:09;-2.10;84.30
16313;DHT22;8265;52.622;13.296;2023-03-01T21:09:30;-1.90;84.30
16313;DHT22;8265;52.622;13.296;2023-03-01T21:14:51;-1.80;84.00
16313;DHT22;8265;52.622;13.296;2023-03-01T21:20:12;-2.10;84.40
16313;DHT22;8265;52.622;13.296;2023-03-01T21:25:33;-2.20;85.20
16313;DHT22;8265;52.622;13.296;2023-03-01T21:30:54;-2.10;84.90
16313;DHT22;8265;52.622;13.296;2023-03-01T21:36:15;-2.20;84.50
16313;DHT22;8265;52.622;13.296;2023-03-01T21:41:36;-2.30;85.30
16313;DHT22;8265;52.622;13.296;2023-03-01T21:46:57;-2.60;85.30
16313;DHT22;8265;52.622;13.296;2023-03-01T21:52:18;-2.60;85.80
16313;DHT22;8265;52.622;13.296;2023-03-01T21:57:39;-2.80;85.90
16313;DHT22;8265;52.622;13.296;2023-03-01T22:03:00;-2.70;86.00
16313;DHT22;8265;52.622;13.296;2023-03-01T22:08:21;-2.80;86.60
16313;DHT22;8265;52.622;13.296;2023-03-01T22:13:42;-2.80;86.80
16313;DHT22;8265;52.622;13.296;2023-03-01T22:19:04;-2.60;87.00
16313;DHT22;8265;52.622;13.296;2023-03-01T22:24:24;-2.70;87.10
16313;DHT22;8265;52.622;13.296;2023-03-01T22:29:45;-2.90;87.10
16313;DHT22;8265;52.622;13.296;2023-03-01T22:35:06;-3.00;87.50
16313;DHT22;8265;52.622;13.296;2023-03-01T22:40:27;-3.10;87.80
16313;DHT22;8265;52.622;13.296;2023-03-01T22:45:48;-3.20;87.50
16313;DHT22;8265;52.622;13.296;2023-03-01T22:51:19;-3.20;87.70
16313;DHT22;8265;52.622;13.296;2023-03-01T22:56:32;-3.20;87.80
16313;DHT22;8265;52.622;13.296;2023-03-01T23:01:51;-2.80;88.90
16313;DHT22;8265;52.622;13.296;2023-03-01T23:07:12;-2.70;87.30
16313;DHT22;8265;52.622;13.296;2023-03-01T23:12:33;-3.00;87.20
16313;DHT22;8265;52.622;13.296;2023-03-01T23:17:54;-3.00;87.90
16313;DHT22;8265;52.622;13.296;2023-03-01T23:23:15;-2.80;88.20
16313;DHT22;8265;52.622;13.296;2023-03-01T23:28:36;-2.80;87.90
16313;DHT22;8265;52.622;13.296;2023-03-01T23:33:57;-2.90;88.00
16313;DHT22;8265;52.622;13.296;2023-03-01T23:39:18;-3.00;87.10
16313;DHT22;8265;52.622;13.296;2023-03-01T23:44:39;-2.90;88.70
16313;DHT22;8265;52.622;13.296;2023-03-01T23:50:00;-2.90;88.40
16313;DHT22;8265;52.622;13.296;2023-03-01T23:55:21;-3.00;88.70
